Time;durP1;ratioP1;P1;durP2;ratioP2;P2;SDS_P1;SDS_P2;PMS_P1;PMS_P2;Temp;Humidity;BMP_temperature;BMP_pressure;BME280_temperature;BME280_humidity;BME280_pressure;Samples;Min_cycle;Max_cycle;Signal;HPM_P1;HPM_P2
2022/01/14 01:44:08;;;;;;;3.25;1.10;;;;;;;-1.00;51.24;96047.38;5018800;23;20811;-91
2022/01/14 01:46:40;;;;;;;2.80;1.00;;;;;;;-1.07;49.81;96048.91;5015521;28;20030;-92
2022/01/14 01:49:07;;;;;;;5.63;2.20;;;;;;;-1.01;48.40;96052.66;5031668;28;20042;-92
2022/01/14 01:51:32;;;;;;;4.90;2.05;;;;;;;-0.89;47.65;96053.19;5032015;28;20084;-91
2022/01/14 01:53:58;;;;;;;2.95;1.45;;;;;;;-0.72;46.92;96051.50;5017774;28;20427;-91
2022/01/14 01:56:24;;;;;;;2.85;1.40;;;;;;;-0.46;45.47;96054.00;5016491;28;20030;-91
2022/01/14 01:58:49;;;;;;;4.47;1.23;;;;;;;-0.46;46.63;96051.44;5019919;28;20030;-92
2022/01/14 02:01:14;;;;;;;3.40;1.17;;;;;;;-0.66;47.77;96042.34;5000642;28;20030;-92
2022/01/14 02:03:40;;;;;;;2.47;1.10;;;;;;;-0.65;45.94;96043.97;4986259;28;20053;-92
2022/01/14 02:06:06;;;;;;;4.35;1.50;;;;;;;-0.65;45.60;96043.97;5035755;28;20389;-92
2022/01/14 02:08:32;;;;;;;3.50;1.52;;;;;;;-0.54;44.94;96046.28;5027827;28;20342;-91
2022/01/14 02:10:59;;;;;;;3.85;1.70;;;;;;;-0.37;44.20;96036.81;4999690;28;20038;-92
2022/01/14 02:13:25;;;;;;;2.53;0.90;;;;;;;-0.35;44.07;96041.81;4983904;28;20038;-92
2022/01/14 02:18:30;;;;;;;2.45;1.10;;;;;;;-0.37;44.98;96033.44;4999660;28;20209;-92
2022/01/14 02:23:45;;;;;;;2.13;1.10;;;;;;;-0.70;47.91;96028.97;5013031;28;20359;-92
2022/01/14 02:26:12;;;;;;;1.67;0.95;;;;;;;-0.65;45.85;96024.16;4984100;28;20432;-92
2022/01/14 02:28:39;;;;;;;4.10;1.00;;;;;;;-0.46;44.58;96017.97;5015991;28;20030;-91
2022/01/14 02:31:05;;;;;;;2.67;1.17;;;;;;;-0.32;46.06;96013.16;4999504;28;20084;-91
2022/01/14 02:33:30;;;;;;;3.10;1.27;;;;;;;-0.50;45.37;96015.84;4983152;28;20436;-91
2022/01/14 02:35:56;;;;;;;1.30;0.80;;;;;;;-0.54;46.33;96004.25;4983321;28;20331;-92
2022/01/14 02:38:22;;;;;;;1.52;0.80;;;;;;;-0.49;45.06;96007.97;4983441;28;20036;-91
2022/01/14 02:40:48;;;;;;;2.47;1.15;;;;;;;-0.39;45.48;96007.03;4983321;28;20065;-92
2022/01/14 02:43:16;;;;;;;1.98;0.85;;;;;;;-0.47;45.33;96000.09;4999488;28;20030;-93
2022/01/14 02:45:47;;;;;;;2.17;0.90;;;;;;;-0.60;46.21;96000.53;4998600;28;20066;-92
2022/01/14 02:48:15;;;;;;;2.28;0.80;;;;;;;-0.54;46.05;95992.19;4983288;28;20462;-92
2022/01/14 02:50:55;;;;;;;2.40;0.82;;;;;;;-0.47;45.92;95988.03;4983409;28;20029;-92
2022/01/14 02:56:00;;;;;;;1.15;0.60;;;;;;;-0.54;46.60;95974.19;4998936;28;20030;-91
2022/01/14 02:58:29;;;;;;;3.15;1.00;;;;;;;-0.60;48.29;95983.34;4999002;28;20408;-92
2022/01/14 03:00:56;;;;;;;5.88;1.48;;;;;;;-0.60;51.14;95980.75;4998826;28;20030;-92
2022/01/14 03:03:23;;;;;;;1.92;0.85;;;;;;;-0.76;53.44;95986.66;4982364;28;20026;-93
2022/01/14 03:05:49;;;;;;;1.55;0.80;;;;;;;-0.93;55.27;95990.94;4998097;28;20053;-92
2022/01/14 03:08:16;;;;;;;4.60;1.27;;;;;;;-0.96;53.69;95986.09;4998591;28;20030;-92
2022/01/14 03:10:43;;;;;;;1.85;1.10;;;;;;;-0.94;52.93;95991.09;4999105;28;20441;-92
2022/01/14 03:13:08;;;;;;;2.30;1.02;;;;;;;-0.97;53.94;95993.97;4998541;28;20030;-92
2022/01/14 03:15:34;;;;;;;1.50;0.80;;;;;;;-1.15;53.69;95992.25;4982000;28;20026;-92
2022/01/14 03:17:59;;;;;;;2.13;1.13;;;;;;;-1.04;51.50;95986.06;4982372;28;20121;-92
2022/01/14 03:20:46;;;;;;;2.10;0.98;;;;;;;-0.83;51.04;95998.53;4982295;28;20030;-92
2022/01/14 03:23:11;;;;;;;1.42;0.90;;;;;;;-0.97;51.28;95989.63;4998294;28;20035;-92
2022/01/14 03:25:59;;;;;;;2.15;0.90;;;;;;;-1.03;51.52;95998.75;4998224;28;20426;-92
2022/01/14 03:28:23;;;;;;;2.03;0.90;;;;;;;-0.98;51.67;95994.94;4998053;28;20030;-92
2022/01/14 03:30:51;;;;;;;2.58;1.13;;;;;;;-0.95;51.77;95992.84;4982237;28;20424;-92
2022/01/14 03:33:17;;;;;;;3.30;1.30;;;;;;;-1.10;51.96;95990.06;4998027;28;20074;-93
2022/01/14 03:35:42;;;;;;;2.33;1.10;;;;;;;-0.92;51.92;95982.25;4981996;28;20450;-92
2022/01/14 03:38:08;;;;;;;2.20;1.10;;;;;;;-1.04;52.02;95974.00;4982023;28;20095;-92
2022/01/14 03:40:34;;;;;;;1.48;0.75;;;;;;;-0.77;50.05;95979.91;5014327;28;20045;-92
2022/01/14 03:42:59;;;;;;;1.25;0.70;;;;;;;-0.55;50.80;95974.31;4998434;28;20030;-93
2022/01/14 03:45:25;;;;;;;2.13;0.70;;;;;;;-0.36;49.53;95962.94;4981505;28;20034;-93
2022/01/14 03:47:50;;;;;;;1.35;0.85;;;;;;;-0.36;49.90;95961.19;4982155;28;20034;-93
2022/01/14 03:50:16;;;;;;;1.38;0.80;;;;;;;-0.46;51.35;95965.66;4982118;28;20049;-93
2022/01/14 03:52:41;;;;;;;1.55;0.82;;;;;;;-0.72;53.71;95953.69;4982056;28;20034;-93
2022/01/14 03:55:07;;;;;;;1.58;0.90;;;;;;;-0.69;52.33;95957.72;4981362;28;20049;-92
2022/01/14 03:57:32;;;;;;;2.67;0.90;;;;;;;-0.82;52.32;95951.25;4997759;28;20031;-92
2022/01/14 03:59:58;;;;;;;1.75;1.00;;;;;;;-0.79;50.20;95950.13;4981663;28;20351;-92
2022/01/14 04:02:25;;;;;;;1.98;0.93;;;;;;;-0.61;50.81;95952.59;4998032;28;20038;-93
2022/01/14 04:04:51;;;;;;;2.03;0.90;;;;;;;-0.34;52.38;95950.69;4981320;28;20338;-92
2022/01/14 04:07:16;;;;;;;2.53;0.80;;;;;;;-0.54;52.98;95953.59;4998105;28;20026;-91
2022/01/14 04:09:42;;;;;;;1.45;0.88;;;;;;;-0.87;57.24;95954.28;4997944;28;20034;-92
2022/01/14 04:12:10;;;;;;;1.30;0.77;;;;;;;-1.06;55.75;95959.69;4981613;28;20030;-92
2022/01/14 04:17:02;;;;;;;1.83;0.98;;;;;;;-0.85;55.43;95954.16;5013823;28;20053;-92
2022/01/14 04:19:28;;;;;;;3.60;1.30;;;;;;;-1.27;55.52;95952.38;4997457;28;20030;-92
2022/01/14 04:21:56;;;;;;;2.17;0.90;;;;;;;-1.37;55.51;95940.41;4981185;28;20077;-91
2022/01/14 04:24:22;;;;;;;1.83;0.95;;;;;;;-1.30;55.20;95948.31;4997190;28;20312;-92
2022/01/14 04:26:48;;;;;;;1.50;1.00;;;;;;;-0.98;52.96;95939.13;4997535;28;20034;-92
2022/01/14 04:29:14;;;;;;;1.48;0.82;;;;;;;-0.85;52.26;95936.13;5013458;28;20030;-92
2022/01/14 04:31:42;;;;;;;1.58;1.00;;;;;;;-0.81;51.64;95932.28;4997502;28;20172;-92
2022/01/14 04:34:08;;;;;;;2.63;1.20;;;;;;;-0.97;51.46;95927.09;4997026;28;20372;-92
2022/01/14 04:36:33;;;;;;;2.63;0.98;;;;;;;-0.60;50.36;95931.84;4981115;28;20030;-92
2022/01/14 04:38:59;;;;;;;4.05;1.20;;;;;;;-0.78;51.38;95928.59;4981001;28;20344;-91
2022/01/14 04:41:25;;;;;;;3.05;1.02;;;;;;;-1.00;51.92;95929.00;4981447;28;20027;-91
2022/01/14 04:43:50;;;;;;;2.17;1.10;;;;;;;-1.01;52.55;95927.38;4997166;28;20041;-91
2022/01/14 04:46:47;;;;;;;1.50;0.90;;;;;;;-0.98;51.05;95922.91;4980681;28;20129;-92
2022/01/14 04:49:10;;;;;;;1.10;0.80;;;;;;;-0.75;50.81;95923.13;4996857;28;20053;-92
2022/01/14 04:51:37;;;;;;;1.65;0.90;;;;;;;-0.79;50.79;95929.53;4980973;28;20034;-91
2022/01/14 04:54:03;;;;;;;1.13;0.80;;;;;;;-0.74;55.53;95920.38;4997177;28;20355;-92
2022/01/14 04:56:32;;;;;;;2.35;1.20;;;;;;;-0.82;58.26;95917.78;5000473;28;20025;-91
2022/01/14 04:58:57;;;;;;;1.42;0.80;;;;;;;-0.86;59.91;95912.16;5032966;28;20034;-92
2022/01/14 05:01:23;;;;;;;0.90;0.70;;;;;;;-1.05;60.71;95928.66;5032692;28;20382;-92
2022/01/14 05:03:51;;;;;;;1.33;0.80;;;;;;;-1.17;58.15;95915.28;4999559;28;20042;-92
2022/01/14 05:06:16;;;;;;;1.05;0.70;;;;;;;-1.14;59.47;95916.75;5016355;28;20419;-92
2022/01/14 05:08:42;;;;;;;1.52;0.73;;;;;;;-0.84;59.57;95919.72;5016034;28;20040;-92
2022/01/14 05:13:44;;;;;;;1.88;1.05;;;;;;;-0.95;59.07;95909.72;5017322;28;20034;-93
2022/01/14 05:16:10;;;;;;;2.60;0.93;;;;;;;-0.99;58.79;95904.06;4999750;28;20116;-92
2022/01/14 05:18:38;;;;;;;2.55;0.70;;;;;;;-0.68;58.43;95908.66;5015872;28;20064;-91
2022/01/14 05:21:04;;;;;;;1.15;0.60;;;;;;;-0.70;54.58;95902.84;5015991;28;20030;-92
2022/01/14 05:23:29;;;;;;;2.80;1.00;;;;;;;-0.57;51.69;95899.84;5016598;28;20056;-91
2022/01/14 05:25:55;;;;;;;1.98;1.00;;;;;;;-0.55;50.14;95897.91;5015628;28;20439;-93
2022/01/14 05:28:20;;;;;;;2.30;0.90;;;;;;;-0.61;54.74;95895.94;4999859;28;20153;-93
2022/01/14 05:30:46;;;;;;;1.33;0.75;;;;;;;-0.65;56.13;95890.31;5000157;28;20083;-93
2022/01/14 05:33:12;;;;;;;2.05;0.93;;;;;;;-0.59;56.49;95883.72;5015934;28;20085;-93
2022/01/14 05:35:37;;;;;;;1.70;0.70;;;;;;;-0.56;55.05;95883.41;4999689;28;20029;-94
2022/01/14 05:38:03;;;;;;;0.75;0.60;;;;;;;-0.33;52.09;95882.78;5000049;28;20032;-93
2022/01/14 05:40:29;;;;;;;0.80;0.50;;;;;;;-0.13;51.20;95874.72;5000011;28;20033;-92
2022/01/14 05:42:55;;;;;;;1.00;0.70;;;;;;;-0.07;52.74;95872.31;4999754;28;20320;-93
2022/01/14 05:45:21;;;;;;;1.10;0.60;;;;;;;-0.15;53.77;95872.31;5003512;28;20041;-94
2022/01/14 05:47:46;;;;;;;11.85;1.02;;;;;;;-0.28;53.78;95870.22;4996691;28;20030;-93
2022/01/14 05:50:17;;;;;;;1.27;0.50;;;;;;;-0.05;54.95;95869.56;4996691;28;20070;-93
2022/01/14 05:52:43;;;;;;;1.05;0.55;;;;;;;-0.26;56.12;95864.91;4996633;28;20026;-93
2022/01/14 05:55:11;;;;;;;1.40;0.60;;;;;;;-0.31;55.03;95873.09;5005758;28;20033;-93
2022/01/14 05:57:38;;;;;;;1.80;0.60;;;;;;;-0.38;54.69;95872.16;4994719;28;20022;-93
2022/01/14 06:00:13;;;;;;;3.67;0.70;;;;;;;-0.19;58.72;95876.97;4980331;28;20041;-93
2022/01/14 06:02:38;;;;;;;1.00;0.70;;;;;;;0.19;62.39;95873.06;4980027;28;20049;-93
2022/01/14 06:05:04;;;;;;;1.02;0.60;;;;;;;0.32;62.15;95872.56;4995976;28;20128;-93
2022/01/14 06:07:30;;;;;;;1.17;0.50;;;;;;;0.41;63.76;95881.88;4980001;28;20037;-92
2022/01/14 06:09:55;;;;;;;1.30;0.70;;;;;;;0.94;65.93;95882.16;4999676;28;20101;-92
2022/01/14 06:12:21;;;;;;;2.13;0.90;;;;;;;1.05;65.54;95880.97;4996409;28;20062;-93
2022/01/14 06:14:46;;;;;;;1.73;0.88;;;;;;;0.79;66.29;95889.81;4996372;28;20026;-93
2022/01/14 06:17:12;;;;;;;1.75;0.90;;;;;;;0.56;64.62;95880.22;4996400;28;20428;-93
2022/01/14 06:19:37;;;;;;;2.58;1.20;;;;;;;0.49;64.84;95887.00;4996112;28;20033;-93
2022/01/14 06:22:03;;;;;;;1.42;0.75;;;;;;;0.50;61.88;95882.66;4996160;28;20041;-92
2022/01/14 06:24:28;;;;;;;4.68;1.25;;;;;;;0.50;59.32;95883.47;4979367;28;20113;-93
2022/01/14 06:26:54;;;;;;;3.15;1.40;;;;;;;0.79;54.70;95870.94;4996245;28;20092;-92
2022/01/14 06:29:21;;;;;;;6.00;1.70;;;;;;;0.50;57.32;95867.19;5012260;28;20084;-93
2022/01/14 06:31:47;;;;;;;4.28;1.50;;;;;;;0.42;58.04;95870.59;4996361;28;20034;-93
2022/01/14 06:34:14;;;;;;;3.30;1.48;;;;;;;0.32;55.66;95870.78;4995816;28;20084;-93
2022/01/14 06:36:40;;;;;;;1.70;1.00;;;;;;;0.48;54.55;95871.72;4996232;28;20068;-93
2022/01/14 06:39:06;;;;;;;3.33;1.58;;;;;;;0.32;56.39;95865.63;4997813;28;20037;-93
2022/01/14 06:41:48;;;;;;;3.67;1.58;;;;;;;-0.04;57.46;95873.75;4999969;28;20034;-93
2022/01/14 06:44:13;;;;;;;2.00;0.98;;;;;;;-0.12;56.34;95871.19;4983156;28;20503;-93
2022/01/14 06:46:39;;;;;;;4.22;1.20;;;;;;;-0.12;57.78;95871.19;4999385;28;20132;-93
2022/01/14 06:49:06;;;;;;;2.22;1.10;;;;;;;-0.31;57.71;95871.34;4983299;28;20034;-92
2022/01/14 06:51:32;;;;;;;5.05;1.40;;;;;;;-0.23;56.46;95870.53;4999284;28;20033;-93
2022/01/14 06:53:58;;;;;;;5.72;1.17;;;;;;;-0.07;54.96;95874.06;4999537;28;20026;-93
2022/01/14 06:56:23;;;;;;;1.83;0.95;;;;;;;0.08;53.73;95875.00;4999012;28;20030;-93
2022/01/14 06:58:49;;;;;;;1.90;1.10;;;;;;;0.27;52.44;95867.88;4999170;28;20088;-93
2022/01/14 07:01:14;;;;;;;1.58;0.80;;;;;;;0.20;54.28;95872.88;4998894;28;20062;-92
2022/01/14 07:03:40;;;;;;;6.63;0.95;;;;;;;-0.08;56.31;95875.03;4998773;28;20080;-92
2022/01/14 07:06:05;;;;;;;3.33;0.90;;;;;;;-0.15;56.81;95877.47;4999124;28;20040;-93
2022/01/14 07:08:31;;;;;;;1.98;1.00;;;;;;;0.03;59.09;95885.03;4999420;28;20030;-92
2022/01/14 07:10:56;;;;;;;2.65;1.10;;;;;;;0.11;57.23;95882.41;4998778;28;20062;-92
2022/01/14 07:13:22;;;;;;;1.83;0.90;;;;;;;0.12;56.31;95883.22;4998938;28;20030;-94
2022/01/14 07:15:47;;;;;;;1.40;0.93;;;;;;;-0.01;58.69;95884.53;4998680;28;20486;-93
2022/01/14 07:18:15;;;;;;;2.15;1.10;;;;;;;0.19;62.91;95880.81;4998781;28;20026;-93
2022/01/14 07:20:41;;;;;;;2.70;1.52;;;;;;;0.36;68.19;95887.53;4993110;28;20053;-92
2022/01/14 07:23:16;;;;;;;2.38;1.17;;;;;;;0.97;76.96;95884.41;5018341;28;20067;-93
2022/01/14 07:25:42;;;;;;;2.35;1.00;;;;;;;1.01;79.43;95892.63;5018181;28;20049;-94
2022/01/14 07:28:07;;;;;;;2.15;0.88;;;;;;;1.12;81.10;95887.06;5018046;28;20423;-92
2022/01/14 07:30:33;;;;;;;2.45;1.23;;;;;;;1.47;88.07;95886.72;5001850;28;20040;-92
2022/01/14 07:32:59;;;;;;;1.88;1.02;;;;;;;1.41;85.80;95884.78;5018131;28;20025;-93
2022/01/14 07:35:25;;;;;;;2.70;1.00;;;;;;;1.41;86.85;95880.44;5033906;28;20022;-92
2022/01/14 07:37:50;;;;;;;1.95;1.10;;;;;;;1.43;88.36;95876.88;5017818;28;20021;-92
2022/01/14 07:40:16;;;;;;;2.28;1.10;;;;;;;1.30;89.14;95867.13;5017701;28;20124;-93
2022/01/14 07:42:41;;;;;;;3.95;0.80;;;;;;;1.33;86.62;95871.94;5001581;28;20435;-93
2022/01/14 07:45:07;;;;;;;1.77;0.98;;;;;;;1.39;86.65;95872.06;5017246;28;20088;-93
2022/01/14 07:47:33;;;;;;;1.77;0.98;;;;;;;1.41;86.45;95869.31;5017939;28;20026;-93
2022/01/14 07:49:58;;;;;;;2.00;0.90;;;;;;;1.51;91.69;95869.09;5033219;28;20449;-92
2022/01/14 07:52:27;;;;;;;2.80;1.10;;;;;;;1.57;88.97;95867.56;5017530;28;20108;-92
2022/01/14 07:54:52;;;;;;;2.90;1.33;;;;;;;1.52;93.12;95860.38;5001297;28;20032;-93
2022/01/14 07:57:18;;;;;;;2.95;1.13;;;;;;;1.47;92.57;95862.66;5001651;28;20327;-93
2022/01/14 07:59:44;;;;;;;2.20;1.25;;;;;;;1.53;93.27;95867.94;5001536;28;20054;-92
2022/01/14 08:02:10;;;;;;;4.03;1.20;;;;;;;1.46;95.27;95879.13;5034235;28;20446;-92
2022/01/14 08:04:37;;;;;;;1.55;0.88;;;;;;;1.41;99.98;95870.13;5016859;28;20108;-92
2022/01/14 08:07:09;;;;;;;3.42;1.00;;;;;;;1.39;94.67;95866.09;5017233;28;20506;-93
2022/01/14 08:09:37;;;;;;;2.00;1.05;;;;;;;1.40;85.56;95868.50;5002141;28;20423;-93
2022/01/14 08:12:03;;;;;;;2.72;1.08;;;;;;;1.35;84.63;95868.19;5001377;28;20034;-93
2022/01/14 08:14:29;;;;;;;2.33;1.02;;;;;;;1.44;82.01;95865.56;5016905;28;20113;-93
2022/01/14 08:16:54;;;;;;;1.83;0.88;;;;;;;1.60;84.55;95864.66;5017205;28;20029;-93
2022/01/14 08:19:20;;;;;;;3.22;1.13;;;;;;;1.76;83.09;95864.53;5017312;28;20026;-93
2022/01/14 08:21:45;;;;;;;2.20;1.00;;;;;;;1.71;78.80;95863.44;5016995;28;20156;-93
2022/01/14 08:24:11;;;;;;;3.95;1.00;;;;;;;1.81;81.39;95866.59;5016908;28;20084;-92
2022/01/14 08:26:36;;;;;;;1.52;1.00;;;;;;;1.93;81.22;95862.59;5017205;28;20065;-92
2022/01/14 08:29:02;;;;;;;1.55;1.00;;;;;;;2.03;82.02;95859.78;5018049;28;20033;-93
2022/01/14 08:31:28;;;;;;;2.20;1.02;;;;;;;2.31;83.98;95851.41;5000721;28;20068;-93
2022/01/14 08:33:53;;;;;;;1.40;0.90;;;;;;;2.64;74.73;95847.63;5000422;28;20071;-93
2022/01/14 08:36:19;;;;;;;4.82;1.10;;;;;;;2.99;72.67;95847.03;5000620;28;20021;-91
2022/01/14 08:38:44;;;;;;;1.88;0.98;;;;;;;3.34;72.44;95844.63;5017067;28;20343;-93
2022/01/14 08:41:10;;;;;;;2.20;1.20;;;;;;;3.48;71.26;95836.00;5000501;28;20079;-93
2022/01/14 08:43:35;;;;;;;2.15;1.10;;;;;;;3.38;74.88;95838.09;5000688;28;20030;-91
2022/01/14 08:46:04;;;;;;;1.10;0.77;;;;;;;3.22;74.28;95839.13;5032996;28;20041;-91
2022/01/14 08:48:33;;;;;;;1.63;0.70;;;;;;;3.10;69.94;95834.44;5016673;28;20027;-93
2022/01/14 08:50:58;;;;;;;1.83;0.70;;;;;;;3.08;70.38;95838.19;5016551;28;20045;-93
2022/01/14 08:53:24;;;;;;;1.35;0.80;;;;;;;2.93;74.56;95835.63;5016442;28;20378;-93
2022/01/14 08:55:50;;;;;;;3.45;0.75;;;;;;;2.93;71.21;95844.22;4996609;28;20113;-92
2022/01/14 08:58:15;;;;;;;2.20;0.82;;;;;;;3.08;70.80;95838.97;4996823;28;20033;-90
2022/01/14 09:00:41;;;;;;;0.75;0.60;;;;;;;2.96;71.39;95830.91;4996441;28;20115;-92
2022/01/14 09:03:06;;;;;;;1.30;0.82;;;;;;;3.04;73.65;95835.16;4980706;28;20439;-90
2022/01/14 09:05:32;;;;;;;4.72;0.70;;;;;;;3.16;68.89;95832.91;4980304;28;20034;-92
2022/01/14 09:07:59;;;;;;;3.03;0.70;;;;;;;3.22;71.55;95828.75;4996793;28;20030;-92
2022/01/14 09:10:24;;;;;;;1.05;0.73;;;;;;;3.27;70.51;95835.97;4980820;28;20030;-93
2022/01/14 09:12:50;;;;;;;0.70;0.52;;;;;;;3.25;72.17;95824.03;4996964;28;20036;-93
2022/01/14 09:15:16;;;;;;;1.08;0.63;;;;;;;3.34;72.58;95818.72;4996766;28;20034;-92
2022/01/14 09:17:42;;;;;;;1.35;0.77;;;;;;;3.46;72.07;95822.44;5012727;28;20414;-93
2022/01/14 09:20:09;;;;;;;2.42;0.95;;;;;;;3.65;72.14;95815.78;4980507;28;20061;-91
2022/01/14 09:22:35;;;;;;;0.85;0.60;;;;;;;3.61;72.39;95819.75;4980269;28;20030;-91
2022/01/14 09:25:06;;;;;;;1.20;0.60;;;;;;;3.65;74.75;95815.78;4980115;28;20030;-90
2022/01/14 09:27:33;;;;;;;1.48;0.80;;;;;;;3.79;75.03;95814.13;5012795;28;20392;-90
2022/01/14 09:30:03;;;;;;;1.85;0.80;;;;;;;3.88;74.92;95806.22;4996425;28;20023;-90
2022/01/14 09:32:28;;;;;;;1.45;0.80;;;;;;;3.95;74.14;95812.22;4980282;28;20443;-90
2022/01/14 09:34:54;;;;;;;1.13;0.73;;;;;;;4.01;73.26;95806.25;4979710;28;20050;-92
2022/01/14 09:37:19;;;;;;;1.27;0.60;;;;;;;4.03;75.79;95801.72;4996411;28;20053;-90
2022/01/14 09:39:45;;;;;;;1.10;0.73;;;;;;;4.02;75.13;95805.31;4980609;28;20363;-91
2022/01/14 09:42:11;;;;;;;1.40;0.90;;;;;;;4.07;75.66;95805.53;4980154;28;20066;-90
2022/01/14 09:44:37;;;;;;;1.02;0.70;;;;;;;4.28;75.70;95809.03;4979540;28;20551;-90
2022/01/14 09:47:05;;;;;;;1.73;0.90;;;;;;;4.34;77.48;95799.66;4980107;28;20034;-91
2022/01/14 09:49:30;;;;;;;1.88;0.85;;;;;;;4.31;80.11;95800.06;4980036;28;20093;-90
2022/01/14 09:51:56;;;;;;;1.05;0.55;;;;;;;4.35;78.23;95796.91;4980048;28;20026;-90
2022/01/14 09:54:21;;;;;;;0.70;0.60;;;;;;;4.42;76.10;95801.31;5011976;28;20084;-89
2022/01/14 09:56:47;;;;;;;2.15;0.80;;;;;;;4.55;74.55;95795.38;5012493;28;20026;-90
2022/01/14 09:59:13;;;;;;;2.35;0.93;;;;;;;4.55;77.13;95790.19;4996143;28;20037;-90
2022/01/14 10:01:44;;;;;;;2.47;1.13;;;;;;;4.59;77.39;95781.03;5012329;28;20360;-90
2022/01/14 10:04:19;;;;;;;3.10;1.00;;;;;;;4.63;77.49;95782.22;4979857;28;20053;-90
2022/01/14 10:06:56;;;;;;;2.03;0.80;;;;;;;4.73;79.89;95772.28;4979843;28;20057;-89
2022/01/14 10:09:36;;;;;;;2.00;1.10;;;;;;;4.89;81.95;95773.75;4980073;28;20089;-90
2022/01/14 10:12:05;;;;;;;1.85;1.02;;;;;;;4.93;79.67;95774.13;4979937;28;20403;-90
2022/01/14 10:14:32;;;;;;;1.88;0.90;;;;;;;5.18;77.91;95769.19;4998541;28;20034;-90
2022/01/14 10:17:02;;;;;;;3.22;1.40;;;;;;;5.15;77.71;95774.75;4999840;28;20034;-90
2022/01/14 10:19:29;;;;;;;2.58;1.38;;;;;;;5.16;77.00;95765.97;5000775;28;20026;-90
2022/01/14 10:21:56;;;;;;;2.00;0.90;;;;;;;5.18;75.45;95764.00;4999476;28;20031;-90
2022/01/14 10:24:24;;;;;;;1.98;0.90;;;;;;;5.28;77.82;95762.78;4983050;28;20030;-90
2022/01/14 10:26:56;;;;;;;1.33;0.73;;;;;;;5.39;75.97;95757.00;5016131;28;20446;-90
2022/01/14 10:29:39;;;;;;;1.50;0.85;;;;;;;5.30;76.24;95756.41;4983647;28;20050;-89
2022/01/14 10:32:07;;;;;;;2.00;0.80;;;;;;;5.35;78.10;95743.59;4999708;28;20327;-90
2022/01/14 10:34:34;;;;;;;2.13;1.05;;;;;;;5.45;78.99;95745.00;4982889;28;20346;-92
2022/01/14 10:37:16;;;;;;;1.40;0.80;;;;;;;5.57;78.58;95740.00;4999487;28;20036;-92
2022/01/14 10:39:48;;;;;;;1.60;0.95;;;;;;;5.67;79.06;95737.78;4999405;28;20030;-93
2022/01/14 10:42:40;;;;;;;8.40;2.83;;;;;;;5.72;79.04;95735.38;4999236;28;20352;-92
2022/01/14 10:45:25;;;;;;;2.10;0.98;;;;;;;5.85;81.56;95731.97;4980114;28;20100;-92
2022/01/14 10:48:05;;;;;;;4.25;1.35;;;;;;;5.98;82.04;95719.94;5000497;28;20034;-93
2022/01/14 10:50:41;;;;;;;1.92;1.10;;;;;;;6.14;79.30;95718.72;4999314;28;20348;-93
2022/01/14 10:53:10;;;;;;;2.03;0.93;;;;;;;6.15;77.69;95708.09;4999255;28;20030;-92
2022/01/14 10:55:42;;;;;;;3.05;1.20;;;;;;;6.27;75.80;95710.84;5000019;28;20030;-92
2022/01/14 10:58:16;;;;;;;0.98;0.70;;;;;;;6.18;76.48;95699.09;4982866;28;20030;-92
2022/01/14 11:00:55;;;;;;;1.50;0.93;;;;;;;6.29;77.66;95695.81;4982918;28;20324;-90
2022/01/14 11:03:41;;;;;;;2.25;1.10;;;;;;;6.33;76.48;95691.81;4999036;28;20444;-89
2022/01/14 11:06:21;;;;;;;2.85;1.35;;;;;;;6.40;74.97;95688.38;5008021;28;20125;-90
2022/01/14 11:08:49;;;;;;;1.58;1.00;;;;;;;6.46;74.81;95685.75;5019438;28;20394;-90
2022/01/14 11:11:15;;;;;;;2.65;1.30;;;;;;;6.42;74.75;95681.16;5018493;28;20092;-90
2022/01/14 11:13:43;;;;;;;2.70;1.00;;;;;;;6.58;75.68;95679.88;4998640;28;20083;-90
2022/01/14 11:16:08;;;;;;;2.20;1.00;;;;;;;6.69;76.94;95673.19;4998519;28;20048;-90
2022/01/14 11:18:34;;;;;;;1.60;1.08;;;;;;;6.79;76.40;95665.72;4982595;28;20092;-91
2022/01/14 11:23:43;;;;;;;4.85;1.15;;;;;;;7.11;74.52;95663.09;4998231;28;20351;-90
2022/01/14 11:26:11;;;;;;;1.88;1.08;;;;;;;7.01;75.10;95662.75;4998571;28;20042;-90
2022/01/14 11:28:40;;;;;;;2.75;1.08;;;;;;;7.00;74.92;95653.34;4998467;28;20089;-90
2022/01/14 11:31:30;;;;;;;1.92;1.30;;;;;;;7.16;75.33;95647.59;4998789;28;20040;-89
2022/01/14 11:33:59;;;;;;;2.22;1.08;;;;;;;7.17;74.56;95651.84;4997885;28;20348;-90
2022/01/14 11:36:25;;;;;;;2.53;1.42;;;;;;;7.20;75.40;95643.56;4998210;28;20363;-90
2022/01/14 11:38:51;;;;;;;2.38;1.25;;;;;;;7.40;73.74;95629.56;4982114;28;20026;-90
2022/01/14 11:41:23;;;;;;;2.17;1.30;;;;;;;7.44;75.33;95628.09;4982361;28;20049;-90
2022/01/14 11:43:53;;;;;;;3.95;1.20;;;;;;;7.40;73.96;95626.16;4997735;28;20455;-90
2022/01/14 11:46:44;;;;;;;3.08;1.40;;;;;;;7.50;77.30;95627.25;4998104;28;20137;-90
2022/01/14 11:49:31;;;;;;;6.13;1.55;;;;;;;7.53;77.99;95618.22;4989169;28;20444;-90
2022/01/14 11:52:00;;;;;;;2.45;1.50;;;;;;;7.61;76.89;95614.50;4998089;28;20387;-90
2022/01/14 11:54:41;;;;;;;3.00;1.33;;;;;;;7.75;79.14;95615.97;5013794;28;20477;-90
2022/01/14 11:57:07;;;;;;;2.10;1.42;;;;;;;7.87;77.92;95610.00;4981796;28;20054;-90
2022/01/14 11:59:32;;;;;;;2.75;1.50;;;;;;;8.07;77.63;95607.16;5014015;28;20030;-90
2022/01/14 12:02:15;;;;;;;2.50;1.30;;;;;;;8.09;77.78;95601.72;4998869;28;20033;-90
2022/01/14 12:05:01;;;;;;;3.25;1.48;;;;;;;8.41;72.63;95598.88;4999232;28;20038;-90
2022/01/14 12:07:27;;;;;;;2.63;1.35;;;;;;;8.29;73.68;95594.41;4997557;28;20037;-90
2022/01/14 12:10:07;;;;;;;5.40;1.45;;;;;;;8.36;73.89;95596.91;4997620;28;20034;-90
2022/01/14 12:12:33;;;;;;;4.47;1.83;;;;;;;8.37;71.61;95592.50;4998085;28;20030;-90
2022/01/14 12:15:01;;;;;;;3.63;1.98;;;;;;;8.40;71.11;95590.25;4997379;28;20032;-90
2022/01/14 12:17:41;;;;;;;2.47;1.55;;;;;;;8.55;72.98;95584.63;4981701;28;20026;-90
2022/01/14 12:20:11;;;;;;;1.90;1.02;;;;;;;8.68;71.81;95588.06;5013726;28;20026;-90
2022/01/14 12:22:36;;;;;;;2.72;1.45;;;;;;;8.71;71.35;95588.41;4981260;28;20081;-90
2022/01/14 12:25:03;;;;;;;2.45;1.25;;;;;;;8.80;70.99;95580.22;4996910;28;20042;-90
2022/01/14 12:27:34;;;;;;;2.72;1.42;;;;;;;8.72;70.87;95576.13;4997236;28;20030;-90
2022/01/14 12:30:23;;;;;;;2.17;0.90;;;;;;;8.80;72.12;95567.16;4997154;28;20068;-90
2022/01/14 12:32:53;;;;;;;5.95;1.10;;;;;;;8.83;74.19;95551.84;4981127;28;20325;-90
2022/01/14 12:35:26;;;;;;;6.13;1.52;;;;;;;8.94;73.61;95555.47;4996857;28;20124;-90
2022/01/14 12:37:55;;;;;;;2.90;1.30;;;;;;;9.06;72.92;95563.34;4997157;28;20038;-90
2022/01/14 12:40:23;;;;;;;4.25;1.42;;;;;;;9.07;71.83;95551.84;4996974;28;20065;-90
2022/01/14 12:42:55;;;;;;;2.35;1.10;;;;;;;9.08;73.11;95552.63;4997017;28;20347;-90
2022/01/14 12:45:28;;;;;;;1.15;0.90;;;;;;;9.17;69.04;95559.13;4996465;28;20038;-90
2022/01/14 12:48:00;;;;;;;2.42;1.27;;;;;;;9.09;69.07;95555.03;4997172;28;20022;-90
2022/01/14 12:50:29;;;;;;;2.05;1.08;;;;;;;9.24;68.36;95553.78;5013055;28;20037;-90
2022/01/14 12:52:54;;;;;;;2.20;1.15;;;;;;;9.25;68.89;95550.91;4996958;28;20035;-90
2022/01/14 12:55:20;;;;;;;2.28;1.30;;;;;;;9.24;69.19;95544.09;4996371;28;20036;-90
2022/01/14 12:57:45;;;;;;;2.67;1.00;;;;;;;9.53;70.75;95533.69;4996798;28;20030;-90
2022/01/14 13:00:13;;;;;;;2.25;1.30;;;;;;;9.79;69.96;95533.41;4996960;28;20040;-90
2022/01/14 13:02:40;;;;;;;2.95;1.50;;;;;;;9.62;69.36;95521.84;5012902;28;20037;-90
2022/01/14 13:05:16;;;;;;;4.00;1.50;;;;;;;9.58;70.15;95525.97;4996468;28;20030;-90
2022/01/14 13:07:42;;;;;;;2.13;1.27;;;;;;;9.57;70.23;95523.56;4996737;28;20058;-90
2022/01/14 13:10:10;;;;;;;3.20;1.48;;;;;;;9.62;70.19;95519.22;5012815;28;20081;-90
2022/01/14 13:12:40;;;;;;;2.42;1.20;;;;;;;9.65;67.38;95517.19;4996393;28;20459;-90
2022/01/14 13:15:16;;;;;;;14.00;8.73;;;;;;;9.80;67.37;95514.84;4980525;28;20030;-90
2022/01/14 13:17:53;;;;;;;129.18;62.33;;;;;;;9.79;67.41;95517.72;4980906;28;20117;-90
2022/01/14 13:20:18;;;;;;;38.05;19.10;;;;;;;9.78;66.01;95519.53;4981461;28;20416;-90
2022/01/14 13:22:45;;;;;;;11.13;5.47;;;;;;;9.76;65.81;95514.53;4996267;28;20117;-90
2022/01/14 13:25:20;;;;;;;53.55;28.90;;;;;;;9.66;66.06;95508.28;4979834;28;20422;-90
2022/01/14 13:27:48;;;;;;;31.17;18.30;;;;;;;9.69;66.41;95508.63;4996184;28;20034;-90
2022/01/14 13:30:23;;;;;;;520.95;188.60;;;;;;;9.80;66.73;95509.59;4996560;28;20128;-91
2022/01/14 13:32:55;;;;;;;280.02;92.68;;;;;;;9.86;66.10;95513.13;4996326;28;20033;-89
2022/01/14 13:35:24;;;;;;;64.82;26.38;;;;;;;9.88;66.38;95500.59;4980304;28;20053;-90
2022/01/14 13:37:58;;;;;;;37.10;17.33;;;;;;;9.98;69.59;95503.41;4996117;28;20336;-90
2022/01/14 13:40:30;;;;;;;3.83;1.80;;;;;;;10.19;67.66;95504.53;4996281;28;20403;-89
2022/01/14 13:43:20;;;;;;;2.03;1.00;;;;;;;10.17;66.52;95495.31;4996308;28;20343;-89